Time;durP1;ratioP1;P1;durP2;ratioP2;P2;SDS_P1;SDS_P2;PMS_P1;PMS_P2;Temp;Humidity;BMP_temperature;BMP_pressure;BME280_temperature;BME280_humidity;BME280_pressure;Samples;Min_cycle;Max_cycle;Signal;HPM_P1;HPM_P2
2023/07/21 00:01:28;;;;;;;2.47;1.50;;;;;;;;;;4970949;28;20448;-91
2023/07/21 00:03:53;;;;;;;3.27;1.40;;;;;;;;;;4960517;28;20443;-92
2023/07/21 00:06:20;;;;;;;2.63;1.30;;;;;;;;;;4965622;28;20434;-90
2023/07/21 00:08:46;;;;;;;2.00;1.60;;;;;;;;;;4954200;28;20414;-89
2023/07/21 00:11:12;;;;;;;2.03;1.27;;;;;;;;;;4965340;28;20430;-90
2023/07/21 00:13:38;;;;;;;1.93;1.33;;;;;;;;;;4951201;28;20521;-90
2023/07/21 00:16:04;;;;;;;2.90;1.60;;;;;;;;;;4949526;28;20426;-91
2023/07/21 00:18:30;;;;;;;3.33;1.53;;;;;;;;;;4943246;29;20437;-90
2023/07/21 00:20:57;;;;;;;2.80;1.50;;;;;;;;;;4962158;28;20430;-90
2023/07/21 00:23:24;;;;;;;3.17;1.77;;;;;;;;;;4974704;28;20450;-90
2023/07/21 00:25:50;;;;;;;4.13;1.63;;;;;;;;;;4959417;28;20413;-90
2023/07/21 00:28:17;;;;;;;2.87;2.10;;;;;;;;;;4957727;28;20430;-90
2023/07/21 00:30:46;;;;;;;3.10;1.53;;;;;;;;;;4959191;28;20438;-90
2023/07/21 00:33:13;;;;;;;2.10;1.50;;;;;;;;;;4954690;28;20477;-89
2023/07/21 00:35:40;;;;;;;3.20;2.07;;;;;;;;;;4956787;28;20440;-92
2023/07/21 00:38:10;;;;;;;3.33;1.67;;;;;;;;;;4960606;28;20793;-91
2023/07/21 00:40:39;;;;;;;1.77;1.20;;;;;;;;;;4954109;28;20443;-90
2023/07/21 00:43:08;;;;;;;3.60;1.90;;;;;;;;;;4952149;28;20462;-90
2023/07/21 00:45:36;;;;;;;2.63;1.10;;;;;;;;;;4948801;28;20528;-91
2023/07/21 00:48:09;;;;;;;4.10;1.40;;;;;;;;;;4964197;28;20437;-90
2023/07/21 00:50:45;;;;;;;2.60;1.20;;;;;;;;;;4949004;28;20937;-90
2023/07/21 00:53:11;;;;;;;2.37;1.30;;;;;;;;;;4950118;28;20429;-89
2023/07/21 00:55:38;;;;;;;2.20;1.30;;;;;;;;;;4950245;28;20422;-90
2023/07/21 00:58:04;;;;;;;4.20;1.30;;;;;;;;;;4964710;28;20945;-90
2023/07/21 01:00:31;;;;;;;2.90;1.47;;;;;;;;;;4948884;28;20425;-91
2023/07/21 01:02:57;;;;;;;2.00;1.13;;;;;;;;;;4956028;28;20469;-92
2023/07/21 01:05:24;;;;;;;2.77;1.20;;;;;;;;;;4947848;28;20457;-93
2023/07/21 01:07:50;;;;;;;2.00;1.13;;;;;;;;;;4962795;28;20477;-91
2023/07/21 01:10:20;;;;;;;2.30;1.50;;;;;;;;;;4967910;28;20810;-89
2023/07/21 01:12:46;;;;;;;2.23;1.50;;;;;;;;;;4954042;28;20980;-94
2023/07/21 01:15:12;;;;;;;2.20;1.30;;;;;;;;;;4938544;29;20885;-91
2023/07/21 01:17:38;;;;;;;2.23;1.57;;;;;;;;;;4922069;29;20429;-90
2023/07/21 01:20:05;;;;;;;2.23;1.37;;;;;;;;;;4926089;29;20474;-91
2023/07/21 01:22:41;;;;;;;3.33;1.37;;;;;;;;;;4928951;29;20466;-89
2023/07/21 01:25:11;;;;;;;2.40;1.73;;;;;;;;;;4928938;29;20435;-90
2023/07/21 01:27:40;;;;;;;1.63;0.97;;;;;;;;;;4932639;29;20411;-91
2023/07/21 01:30:10;;;;;;;3.40;1.40;;;;;;;;;;4926556;29;20519;-90
2023/07/21 01:32:37;;;;;;;2.40;1.40;;;;;;;;;;4908986;29;20451;-91
2023/07/21 01:35:03;;;;;;;2.80;1.50;;;;;;;;;;4906243;29;20442;-91
2023/07/21 01:37:29;;;;;;;2.73;1.77;;;;;;;;;;4906340;29;20431;-91
2023/07/21 01:39:58;;;;;;;3.33;1.53;;;;;;;;;;4923701;29;20458;-91
2023/07/21 01:42:29;;;;;;;3.50;1.53;;;;;;;;;;4925694;29;20463;-90
2023/07/21 01:44:56;;;;;;;2.63;1.73;;;;;;;;;;4900486;29;20472;-91
2023/07/21 01:47:24;;;;;;;1.90;1.33;;;;;;;;;;4961566;28;20453;-91
2023/07/21 01:49:51;;;;;;;1.73;1.30;;;;;;;;;;4965127;28;20429;-90
2023/07/21 01:52:19;;;;;;;2.00;1.10;;;;;;;;;;4948559;28;20426;-91
2023/07/21 01:54:56;;;;;;;2.40;1.60;;;;;;;;;;4948750;28;20425;-88
2023/07/21 01:57:28;;;;;;;2.30;1.67;;;;;;;;;;4948941;28;20445;-93
2023/07/21 01:59:57;;;;;;;2.07;1.53;;;;;;;;;;4947742;28;20423;-93
2023/07/21 02:02:23;;;;;;;3.93;1.93;;;;;;;;;;4955763;28;20483;-92
2023/07/21 02:04:51;;;;;;;2.47;1.57;;;;;;;;;;4947923;29;20415;-94
2023/07/21 02:07:24;;;;;;;2.30;1.77;;;;;;;;;;4961709;28;20422;-93
2023/07/21 02:09:53;;;;;;;2.67;1.20;;;;;;;;;;4964413;28;20469;-92
2023/07/21 02:12:19;;;;;;;3.27;2.17;;;;;;;;;;4966159;28;20442;-93
2023/07/21 02:14:46;;;;;;;2.77;1.60;;;;;;;;;;4951316;28;20452;-95
2023/07/21 02:17:12;;;;;;;2.67;1.40;;;;;;;;;;4951281;28;20484;-93
2023/07/21 02:19:40;;;;;;;2.80;1.90;;;;;;;;;;4958721;28;20433;-94
2023/07/21 02:22:06;;;;;;;2.90;1.70;;;;;;;;;;4953098;28;20532;-94
2023/07/21 02:24:34;;;;;;;2.90;1.67;;;;;;;;;;4958621;28;20424;-94
2023/07/21 02:27:00;;;;;;;3.60;1.60;;;;;;;;;;4970839;28;20457;-94
2023/07/21 02:29:27;;;;;;;3.30;1.63;;;;;;;;;;4948252;28;20434;-93
2023/07/21 02:31:53;;;;;;;2.10;1.43;;;;;;;;;;4955349;28;20453;-93
2023/07/21 02:34:19;;;;;;;3.40;2.20;;;;;;;;;;4959967;28;20413;-92
2023/07/21 02:36:47;;;;;;;3.93;1.83;;;;;;;;;;4950896;28;20418;-93
2023/07/21 02:39:13;;;;;;;2.60;1.63;;;;;;;;;;4962789;28;20445;-93
2023/07/21 02:41:41;;;;;;;3.10;1.80;;;;;;;;;;4944617;28;20873;-94
2023/07/21 02:44:09;;;;;;;2.20;1.37;;;;;;;;;;4949532;28;20439;-93
2023/07/21 02:46:36;;;;;;;3.37;2.10;;;;;;;;;;4951344;28;21264;-93
2023/07/21 02:49:02;;;;;;;2.93;1.80;;;;;;;;;;4966736;28;20429;-94
2023/07/21 02:51:29;;;;;;;3.20;1.33;;;;;;;;;;4945235;28;20430;-93
2023/07/21 02:53:55;;;;;;;2.80;1.57;;;;;;;;;;4974768;28;20477;-93
2023/07/21 02:56:21;;;;;;;2.20;1.40;;;;;;;;;;4970959;28;20916;-94
2023/07/21 02:58:48;;;;;;;3.97;1.67;;;;;;;;;;4969261;28;20445;-94
2023/07/21 03:01:15;;;;;;;2.87;1.80;;;;;;;;;;4962121;28;20426;-90
2023/07/21 03:03:41;;;;;;;4.10;2.20;;;;;;;;;;4966960;28;20559;-88
2023/07/21 03:06:07;;;;;;;2.30;1.40;;;;;;;;;;4950217;28;20441;-87
2023/07/21 03:08:33;;;;;;;4.23;1.67;;;;;;;;;;4965641;28;20517;-93
2023/07/21 03:10:59;;;;;;;2.53;1.83;;;;;;;;;;4951095;28;20414;-93
2023/07/21 03:13:25;;;;;;;3.37;1.77;;;;;;;;;;4982294;28;20399;-94
2023/07/21 03:15:55;;;;;;;3.00;1.40;;;;;;;;;;4950769;28;20440;-94
2023/07/21 03:18:21;;;;;;;2.47;1.43;;;;;;;;;;4953672;28;21215;-92
2023/07/21 03:20:49;;;;;;;2.87;1.73;;;;;;;;;;4952082;28;20430;-92
2023/07/21 03:23:15;;;;;;;2.40;1.60;;;;;;;;;;4953779;28;20514;-93
2023/07/21 03:25:46;;;;;;;3.43;1.70;;;;;;;;;;4958011;28;20438;-92
2023/07/21 03:28:12;;;;;;;2.40;1.60;;;;;;;;;;4967541;28;20450;-92
2023/07/21 03:30:39;;;;;;;2.10;1.50;;;;;;;;;;4959614;28;20506;-94
2023/07/21 03:33:05;;;;;;;3.97;1.60;;;;;;;;;;4958066;28;20445;-94
2023/07/21 03:35:31;;;;;;;3.17;1.80;;;;;;;;;;4955278;28;20442;-93
2023/07/21 03:37:57;;;;;;;2.40;2.00;;;;;;;;;;4954833;28;20449;-94
2023/07/21 03:40:23;;;;;;;2.37;1.80;;;;;;;;;;4960349;28;20440;-93
2023/07/21 03:42:50;;;;;;;3.60;1.30;;;;;;;;;;4956894;28;20484;-94
2023/07/21 03:45:16;;;;;;;2.10;1.57;;;;;;;;;;4972389;28;20488;-95
2023/07/21 03:47:42;;;;;;;2.53;1.70;;;;;;;;;;4965963;28;20933;-93
2023/07/21 03:50:08;;;;;;;3.47;1.63;;;;;;;;;;4963529;28;20422;-94
2023/07/21 03:52:34;;;;;;;2.33;1.73;;;;;;;;;;4968484;28;20432;-90
2023/07/21 03:55:00;;;;;;;3.30;2.07;;;;;;;;;;4956327;28;20434;-88
2023/07/21 03:57:29;;;;;;;4.03;2.00;;;;;;;;;;4959045;28;20429;-93
2023/07/21 03:59:55;;;;;;;3.40;2.10;;;;;;;;;;4994883;28;20485;-93
2023/07/21 04:02:21;;;;;;;3.03;2.07;;;;;;;;;;4949217;28;20465;-87
2023/07/21 04:04:47;;;;;;;4.70;1.37;;;;;;;;;;4950314;28;20469;-88
2023/07/21 04:07:13;;;;;;;3.90;1.80;;;;;;;;;;4967867;28;20426;-90
2023/07/21 04:09:39;;;;;;;3.90;1.77;;;;;;;;;;4965290;28;20438;-90
2023/07/21 04:12:05;;;;;;;3.73;1.60;;;;;;;;;;4982002;28;20805;-89
2023/07/21 04:14:32;;;;;;;2.40;1.57;;;;;;;;;;4966877;28;21029;-89
2023/07/21 04:16:58;;;;;;;3.33;1.70;;;;;;;;;;4968600;28;20425;-89
2023/07/21 04:19:25;;;;;;;2.10;1.70;;;;;;;;;;4969187;28;20442;-89
2023/07/21 04:21:52;;;;;;;2.50;1.83;;;;;;;;;;4956986;28;20524;-89
2023/07/21 04:24:18;;;;;;;2.97;1.43;;;;;;;;;;4958549;28;20495;-89
2023/07/21 04:26:44;;;;;;;2.00;1.40;;;;;;;;;;4949494;28;20489;-89
2023/07/21 04:29:10;;;;;;;3.90;1.90;;;;;;;;;;4953161;28;20434;-89
2023/07/21 04:31:36;;;;;;;2.70;1.93;;;;;;;;;;4956972;28;20499;-88
2023/07/21 04:34:02;;;;;;;4.03;1.70;;;;;;;;;;4986392;28;20441;-89
2023/07/21 04:36:28;;;;;;;3.50;1.50;;;;;;;;;;4953515;28;20440;-89
2023/07/21 04:38:54;;;;;;;5.10;2.17;;;;;;;;;;4947332;28;20438;-88
2023/07/21 04:41:21;;;;;;;2.70;1.73;;;;;;;;;;4950453;29;20458;-88
2023/07/21 04:43:47;;;;;;;3.90;1.80;;;;;;;;;;4969885;28;20540;-88
2023/07/21 04:46:13;;;;;;;2.57;1.80;;;;;;;;;;4949456;28;20430;-87
2023/07/21 04:48:39;;;;;;;3.43;1.73;;;;;;;;;;4961616;28;20467;-89
2023/07/21 04:51:05;;;;;;;3.40;2.07;;;;;;;;;;4970450;28;20879;-89
2023/07/21 04:53:31;;;;;;;3.23;1.83;;;;;;;;;;4969705;28;20464;-90
2023/07/21 04:55:57;;;;;;;2.50;1.70;;;;;;;;;;4970869;28;20425;-89
2023/07/21 04:58:24;;;;;;;2.60;1.77;;;;;;;;;;4959963;28;20508;-89
2023/07/21 05:00:50;;;;;;;3.87;2.20;;;;;;;;;;4950442;28;20449;-88
2023/07/21 05:03:16;;;;;;;3.20;2.07;;;;;;;;;;4948318;29;20482;-88
2023/07/21 05:05:43;;;;;;;4.03;2.00;;;;;;;;;;4932248;29;20471;-87
2023/07/21 05:08:09;;;;;;;3.33;1.67;;;;;;;;;;4926055;29;20521;-88
2023/07/21 05:10:35;;;;;;;3.43;1.83;;;;;;;;;;4939167;29;20459;-89
2023/07/21 05:13:05;;;;;;;2.63;1.60;;;;;;;;;;4956342;29;20526;-89
2023/07/21 05:15:35;;;;;;;2.70;1.90;;;;;;;;;;4945066;29;20499;-93
2023/07/21 05:18:01;;;;;;;2.40;1.67;;;;;;;;;;4943737;29;20463;-90
2023/07/21 05:20:28;;;;;;;2.53;1.70;;;;;;;;;;4930462;29;20438;-91
2023/07/21 05:22:55;;;;;;;4.37;2.07;;;;;;;;;;4930824;29;20467;-91
2023/07/21 05:25:21;;;;;;;4.03;2.13;;;;;;;;;;4942465;29;20443;-88
2023/07/21 05:27:48;;;;;;;3.80;1.90;;;;;;;;;;4922849;29;20432;-89
2023/07/21 05:30:14;;;;;;;3.77;2.20;;;;;;;;;;4924362;29;21524;-88
2023/07/21 05:32:41;;;;;;;2.40;1.70;;;;;;;;;;4940252;29;20483;-90
2023/07/21 05:35:08;;;;;;;3.13;2.40;;;;;;;;;;4972994;28;20493;-91
2023/07/21 05:37:33;;;;;;;2.70;2.10;;;;;;;;;;4969649;28;20438;-91
2023/07/21 05:39:59;;;;;;;2.77;1.67;;;;;;;;;;4952374;28;20476;-91
2023/07/21 05:42:27;;;;;;;2.70;2.00;;;;;;;;;;4972436;28;20473;-91
2023/07/21 05:44:53;;;;;;;2.77;1.97;;;;;;;;;;4973544;28;20961;-90
2023/07/21 05:47:19;;;;;;;3.37;2.03;;;;;;;;;;4960224;28;20449;-88
2023/07/21 05:49:45;;;;;;;2.93;1.80;;;;;;;;;;4965702;28;20914;-89
2023/07/21 05:52:11;;;;;;;2.67;2.07;;;;;;;;;;4965480;28;20433;-87
2023/07/21 05:54:37;;;;;;;3.20;2.10;;;;;;;;;;4959851;28;20576;-88
2023/07/21 05:57:04;;;;;;;3.20;2.00;;;;;;;;;;4957083;28;20497;-88
2023/07/21 05:59:33;;;;;;;3.43;1.70;;;;;;;;;;4924425;29;20436;-88
2023/07/21 06:01:59;;;;;;;3.53;2.00;;;;;;;;;;4924605;29;20586;-88
2023/07/21 06:04:25;;;;;;;5.80;2.23;;;;;;;;;;4909706;29;20456;-88
2023/07/21 06:06:54;;;;;;;5.93;2.53;;;;;;;;;;4933192;29;20431;-88
2023/07/21 06:09:20;;;;;;;3.60;2.27;;;;;;;;;;4921316;29;20812;-88
2023/07/21 06:11:46;;;;;;;3.57;2.10;;;;;;;;;;4922280;29;20514;-88
2023/07/21 06:14:13;;;;;;;3.63;2.50;;;;;;;;;;4916339;29;20516;-88
2023/07/21 06:16:39;;;;;;;2.87;1.87;;;;;;;;;;4916662;29;20424;-89
2023/07/21 06:19:05;;;;;;;2.90;2.10;;;;;;;;;;4908645;29;20910;-88
2023/07/21 06:21:33;;;;;;;3.80;1.90;;;;;;;;;;4922798;29;20447;-88
2023/07/21 06:23:59;;;;;;;4.10;2.23;;;;;;;;;;4919678;29;20507;-88
2023/07/21 06:26:25;;;;;;;3.80;2.13;;;;;;;;;;4912621;29;20446;-88
2023/07/21 06:28:52;;;;;;;2.27;1.83;;;;;;;;;;4921121;29;20430;-90
2023/07/21 06:31:18;;;;;;;2.50;1.90;;;;;;;;;;4941268;28;21059;-90
2023/07/21 06:33:46;;;;;;;3.23;1.73;;;;;;;;;;4963044;28;20469;-89
2023/07/21 06:36:12;;;;;;;3.20;2.20;;;;;;;;;;4950172;28;20845;-88
2023/07/21 06:38:38;;;;;;;3.20;1.93;;;;;;;;;;4923279;29;20432;-89
2023/07/21 06:41:09;;;;;;;2.60;1.70;;;;;;;;;;4893803;29;20988;-91
2023/07/21 06:43:35;;;;;;;7.10;2.40;;;;;;;;;;4887756;29;20474;-90
2023/07/21 06:46:03;;;;;;;3.93;2.17;;;;;;;;;;4884660;29;20524;-89
2023/07/21 06:48:31;;;;;;;4.90;1.80;;;;;;;;;;4879071;29;20489;-89
2023/07/21 06:50:57;;;;;;;3.23;1.60;;;;;;;;;;4890994;29;20496;-91
2023/07/21 06:53:24;;;;;;;3.30;1.93;;;;;;;;;;4897064;29;20420;-91
2023/07/21 06:55:51;;;;;;;4.83;2.40;;;;;;;;;;4872885;29;20427;-91
2023/07/21 06:58:18;;;;;;;3.40;1.83;;;;;;;;;;4873196;29;20480;-90
2023/07/21 07:00:46;;;;;;;2.97;2.10;;;;;;;;;;4858541;29;20423;-89
2023/07/21 07:03:12;;;;;;;4.23;2.40;;;;;;;;;;4860872;29;20478;-89
2023/07/21 07:05:41;;;;;;;5.60;1.90;;;;;;;;;;4841135;29;20447;-91
2023/07/21 07:08:10;;;;;;;7.57;2.37;;;;;;;;;;4869210;29;20467;-89
2023/07/21 07:10:36;;;;;;;8.13;2.73;;;;;;;;;;4904923;29;20484;-90
2023/07/21 07:13:02;;;;;;;3.33;1.97;;;;;;;;;;4913516;29;20444;-90
2023/07/21 07:15:28;;;;;;;2.53;1.83;;;;;;;;;;4895545;29;20409;-91
2023/07/21 07:17:55;;;;;;;3.00;2.23;;;;;;;;;;4874776;29;20434;-91
2023/07/21 07:20:21;;;;;;;2.20;1.50;;;;;;;;;;4899177;29;20431;-90
2023/07/21 07:22:48;;;;;;;5.07;2.83;;;;;;;;;;4909965;29;20464;-89
2023/07/21 07:25:14;;;;;;;2.83;1.77;;;;;;;;;;4890953;29;20441;-90
2023/07/21 07:27:41;;;;;;;3.93;1.80;;;;;;;;;;4907996;29;20464;-91
2023/07/21 07:30:08;;;;;;;2.90;1.80;;;;;;;;;;4888448;29;20444;-89
2023/07/21 07:32:34;;;;;;;5.20;1.73;;;;;;;;;;4904745;29;20525;-89
2023/07/21 07:35:00;;;;;;;3.43;2.07;;;;;;;;;;4909957;29;20793;-88
2023/07/21 07:37:27;;;;;;;4.57;1.97;;;;;;;;;;4926162;29;20454;-87
2023/07/21 07:39:55;;;;;;;3.33;2.37;;;;;;;;;;4925095;29;20759;-89
2023/07/21 07:42:22;;;;;;;4.87;2.10;;;;;;;;;;4939995;29;21096;-89
2023/07/21 07:44:48;;;;;;;3.70;2.30;;;;;;;;;;4924379;29;20494;-90
2023/07/21 07:47:15;;;;;;;5.40;2.03;;;;;;;;;;4925832;29;21015;-88
2023/07/21 07:49:41;;;;;;;10.27;3.00;;;;;;;;;;4957876;28;20485;-89
2023/07/21 07:52:08;;;;;;;3.67;1.93;;;;;;;;;;4949439;28;20497;-90
2023/07/21 07:54:35;;;;;;;8.43;2.30;;;;;;;;;;4949653;28;20417;-91
2023/07/21 07:57:01;;;;;;;5.97;2.33;;;;;;;;;;4950154;29;20419;-92
2023/07/21 07:59:27;;;;;;;2.30;1.83;;;;;;;;;;4956539;28;20869;-93
2023/07/21 08:01:53;;;;;;;3.73;2.53;;;;;;;;;;4952635;28;20422;-91
2023/07/21 08:04:19;;;;;;;4.30;2.47;;;;;;;;;;4988382;28;20422;-92
2023/07/21 08:06:45;;;;;;;5.13;2.30;;;;;;;;;;4969951;28;20418;-91
2023/07/21 08:09:13;;;;;;;5.30;2.60;;;;;;;;;;4912349;29;20492;-93
2023/07/21 08:11:39;;;;;;;2.67;2.10;;;;;;;;;;4873632;29;20446;-93
2023/07/21 08:14:05;;;;;;;2.50;1.70;;;;;;;;;;4817951;29;20437;-92
2023/07/21 08:16:31;;;;;;;2.40;1.77;;;;;;;;;;4802536;29;20429;-90
2023/07/21 08:18:57;;;;;;;2.70;2.03;;;;;;;;;;4804894;29;20433;-92
2023/07/21 08:21:27;;;;;;;2.87;2.10;;;;;;;;;;4808880;29;20480;-95
2023/07/21 08:23:54;;;;;;;3.53;2.10;;;;;;;;;;4803370;29;20476;-92
2023/07/21 08:26:22;;;;;;;3.33;1.90;;;;;;;;;;4802052;29;20460;-91
2023/07/21 08:28:48;;;;;;;3.30;1.73;;;;;;;;;;4803734;29;20854;-92
2023/07/21 08:31:16;;;;;;;3.70;1.73;;;;;;;;;;4779445;30;20435;-90
2023/07/21 08:33:42;;;;;;;3.63;2.00;;;;;;;;;;4781706;30;20432;-91
2023/07/21 08:36:08;;;;;;;2.90;1.70;;;;;;;;;;4784924;30;20458;-91
2023/07/21 08:38:34;;;;;;;3.73;2.20;;;;;;;;;;4783061;30;20427;-92
2023/07/21 08:41:03;;;;;;;2.30;1.30;;;;;;;;;;4823721;29;20452;-92
2023/07/21 08:43:29;;;;;;;3.83;1.70;;;;;;;;;;4862601;29;20557;-93
2023/07/21 08:45:58;;;;;;;3.40;1.67;;;;;;;;;;4924957;29;20436;-93
2023/07/21 08:48:25;;;;;;;2.63;1.90;;;;;;;;;;4917594;29;20479;-93
2023/07/21 08:50:54;;;;;;;4.10;2.20;;;;;;;;;;4914388;29;20524;-94
2023/07/21 08:53:21;;;;;;;3.03;1.70;;;;;;;;;;4915289;29;20419;-91
2023/07/21 08:55:47;;;;;;;3.23;1.73;;;;;;;;;;4928886;29;20419;-93
2023/07/21 08:58:13;;;;;;;3.40;2.10;;;;;;;;;;4927919;29;20484;-93
2023/07/21 09:00:39;;;;;;;3.93;2.00;;;;;;;;;;4928114;29;20436;-89
2023/07/21 09:03:06;;;;;;;5.07;2.47;;;;;;;;;;4944635;28;20529;-91
2023/07/21 09:05:32;;;;;;;5.80;1.80;;;;;;;;;;4948164;28;20464;-92
2023/07/21 09:07:58;;;;;;;4.30;2.00;;;;;;;;;;4961814;28;20485;-91
2023/07/21 09:10:31;;;;;;;3.17;2.07;;;;;;;;;;4947939;28;20453;-91
2023/07/21 09:12:58;;;;;;;6.73;2.00;;;;;;;;;;4963572;28;20430;-90
2023/07/21 09:15:24;;;;;;;3.00;1.60;;;;;;;;;;4951690;28;20428;-91
2023/07/21 09:17:50;;;;;;;3.60;1.73;;;;;;;;;;4949617;28;20510;-90
2023/07/21 09:20:20;;;;;;;5.80;1.80;;;;;;;;;;4945274;28;20449;-92
2023/07/21 09:22:51;;;;;;;2.33;1.87;;;;;;;;;;4951596;28;20611;-93
2023/07/21 09:25:20;;;;;;;2.43;1.40;;;;;;;;;;4910872;29;20500;-92
2023/07/21 09:27:55;;;;;;;3.40;1.50;;;;;;;;;;4894577;29;20424;-93
2023/07/21 09:30:22;;;;;;;3.73;1.43;;;;;;;;;;4895850;29;20444;-93
2023/07/21 09:32:48;;;;;;;4.20;1.77;;;;;;;;;;4894087;29;20967;-93
2023/07/21 09:35:15;;;;;;;3.13;1.47;;;;;;;;;;4895810;29;20910;-92
2023/07/21 09:37:41;;;;;;;2.93;1.40;;;;;;;;;;4894728;29;20436;-93
2023/07/21 09:40:10;;;;;;;2.90;1.80;;;;;;;;;;4872100;29;20502;-92
2023/07/21 09:42:37;;;;;;;3.47;1.43;;;;;;;;;;4886953;29;20474;-92
2023/07/21 09:45:04;;;;;;;3.10;1.50;;;;;;;;;;4887162;29;20442;-91
2023/07/21 09:47:30;;;;;;;2.27;1.43;;;;;;;;;;4887689;29;20419;-91
2023/07/21 09:50:01;;;;;;;4.63;1.90;;;;;;;;;;4874659;29;20426;-92
2023/07/21 09:52:27;;;;;;;3.70;1.87;;;;;;;;;;4888873;29;20437;-92
2023/07/21 09:54:59;;;;;;;3.03;1.83;;;;;;;;;;4876204;29;20419;-92
2023/07/21 09:57:25;;;;;;;2.30;1.60;;;;;;;;;;4872763;29;20443;-92
2023/07/21 09:59:51;;;;;;;5.60;1.90;;;;;;;;;;4871544;29;20438;-92
2023/07/21 10:02:23;;;;;;;2.80;1.87;;;;;;;;;;4874133;29;20511;-91
2023/07/21 10:04:49;;;;;;;3.00;2.20;;;;;;;;;;4862584;29;20423;-89
2023/07/21 10:07:15;;;;;;;2.30;1.33;;;;;;;;;;4881907;29;20512;-90
2023/07/21 10:09:41;;;;;;;4.60;1.90;;;;;;;;;;4867222;29;20696;-88
2023/07/21 10:12:10;;;;;;;2.80;1.73;;;;;;;;;;4906250;29;20429;-95
2023/07/21 10:14:38;;;;;;;3.63;2.17;;;;;;;;;;4904954;29;20420;-93
2023/07/21 10:17:04;;;;;;;3.10;1.73;;;;;;;;;;4895427;29;20484;-93
2023/07/21 10:19:31;;;;;;;3.23;1.43;;;;;;;;;;4891872;29;20543;-90
2023/07/21 10:21:57;;;;;;;2.33;1.60;;;;;;;;;;4936333;28;20485;-91
2023/07/21 10:24:24;;;;;;;3.50;1.63;;;;;;;;;;4945550;28;20432;-88
2023/07/21 10:26:55;;;;;;;2.33;1.33;;;;;;;;;;4944137;29;20798;-89
2023/07/21 10:29:21;;;;;;;3.43;1.60;;;;;;;;;;4958283;29;20510;-89
2023/07/21 10:31:53;;;;;;;3.33;1.33;;;;;;;;;;4941703;29;20447;-89
2023/07/21 10:34:20;;;;;;;3.20;2.07;;;;;;;;;;4936629;29;20419;-88
2023/07/21 10:36:52;;;;;;;5.30;2.57;;;;;;;;;;4936889;29;20446;-88
2023/07/21 10:39:23;;;;;;;3.53;1.83;;;;;;;;;;4944342;29;20880;-88
2023/07/21 10:41:50;;;;;;;2.30;1.53;;;;;;;;;;4938513;29;20831;-89
2023/07/21 10:44:16;;;;;;;3.37;1.97;;;;;;;;;;4939520;29;20446;-89
2023/07/21 10:46:43;;;;;;;3.83;2.03;;;;;;;;;;4941984;29;20459;-89
2023/07/21 10:49:09;;;;;;;2.50;1.60;;;;;;;;;;4935292;29;20419;-88
2023/07/21 10:51:38;;;;;;;7.53;1.83;;;;;;;;;;4945041;29;20506;-89
2023/07/21 10:54:04;;;;;;;3.00;1.90;;;;;;;;;;4945730;29;20411;-89
2023/07/21 10:56:31;;;;;;;2.70;1.80;;;;;;;;;;4937104;29;20450;-90
2023/07/21 10:58:57;;;;;;;2.70;1.80;;;;;;;;;;4977930;28;20426;-88
2023/07/21 11:01:23;;;;;;;3.33;2.20;;;;;;;;;;4942704;28;20536;-91
2023/07/21 11:03:49;;;;;;;3.80;2.10;;;;;;;;;;4975873;28;20473;-89
2023/07/21 11:06:16;;;;;;;3.07;1.83;;;;;;;;;;4949162;28;20434;-89
2023/07/21 11:08:46;;;;;;;2.37;1.40;;;;;;;;;;4946807;28;20810;-89
2023/07/21 11:11:12;;;;;;;4.03;1.73;;;;;;;;;;4976936;28;20495;-89
2023/07/21 11:13:39;;;;;;;2.93;1.63;;;;;;;;;;4945407;28;20513;-89
2023/07/21 11:16:06;;;;;;;10.70;3.67;;;;;;;;;;4950372;28;20433;-90
2023/07/21 11:18:32;;;;;;;4.80;2.10;;;;;;;;;;4948481;28;20942;-92
2023/07/21 11:20:58;;;;;;;5.70;2.13;;;;;;;;;;4951495;28;20484;-90
2023/07/21 11:23:24;;;;;;;5.03;2.00;;;;;;;;;;4948369;28;20450;-92
2023/07/21 11:26:00;;;;;;;2.60;1.80;;;;;;;;;;4952542;28;20450;-93
2023/07/21 11:28:27;;;;;;;2.93;1.80;;;;;;;;;;4977119;28;20426;-93
2023/07/21 11:30:53;;;;;;;3.03;1.80;;;;;;;;;;4954986;28;20500;-93
2023/07/21 11:33:20;;;;;;;3.10;2.17;;;;;;;;;;4948729;28;20441;-94
2023/07/21 11:35:52;;;;;;;2.57;1.90;;;;;;;;;;4965056;28;20434;-92
2023/07/21 11:38:18;;;;;;;6.97;2.20;;;;;;;;;;4967515;28;20496;-91
2023/07/21 11:40:48;;;;;;;3.70;2.10;;;;;;;;;;4951025;28;20441;-91
2023/07/21 11:43:14;;;;;;;3.60;1.73;;;;;;;;;;4952603;28;20511;-90
2023/07/21 11:45:41;;;;;;;3.80;1.93;;;;;;;;;;4968706;28;20429;-91
2023/07/21 11:48:15;;;;;;;3.27;1.90;;;;;;;;;;4952392;28;20430;-91
2023/07/21 11:50:42;;;;;;;2.93;1.70;;;;;;;;;;4965962;28;20551;-89
2023/07/21 11:53:12;;;;;;;2.80;1.70;;;;;;;;;;4955133;28;20414;-94
2023/07/21 11:55:39;;;;;;;2.90;1.73;;;;;;;;;;4928500;29;20459;-91
2023/07/21 11:58:05;;;;;;;3.77;2.33;;;;;;;;;;4909782;29;21656;-92
2023/07/21 12:00:32;;;;;;;3.00;1.93;;;;;;;;;;4932303;29;20432;-90
2023/07/21 12:02:58;;;;;;;2.90;1.87;;;;;;;;;;4933203;29;20471;-96
2023/07/21 12:05:25;;;;;;;3.97;1.80;;;;;;;;;;4954677;29;20440;-95
2023/07/21 12:07:54;;;;;;;3.23;1.90;;;;;;;;;;4944224;29;20454;-95
2023/07/21 12:10:22;;;;;;;3.70;1.80;;;;;;;;;;4925273;29;20540;-96
2023/07/21 12:18:03;;;;;;;2.83;1.87;;;;;;;;;;5016097;22;20477;-94
2023/07/21 12:20:30;;;;;;;6.80;1.83;;;;;;;;;;4950541;29;20807;-94
2023/07/21 13:38:16;;;;;;;2.60;1.97;;;;;;;;;;5003814;28;20928;-90
2023/07/21 13:40:42;;;;;;;2.90;2.30;;;;;;;;;;4977215;28;20441;-90
2023/07/21 13:43:08;;;;;;;3.87;2.00;;;;;;;;;;4970116;28;20457;-89
2023/07/21 13:45:35;;;;;;;3.80;2.10;;;;;;;;;;4972603;28;20444;-91
2023/07/21 13:48:01;;;;;;;4.03;2.03;;;;;;;;;;4970707;28;20475;-92
2023/07/21 13:50:27;;;;;;;4.43;2.17;;;;;;;;;;4971084;28;20449;-90
2023/07/21 13:52:53;;;;;;;3.83;1.93;;;;;;;;;;4966416;28;20434;-90
2023/07/21 13:55:19;;;;;;;7.43;2.23;;;;;;;;;;4967194;28;20426;-89
2023/07/21 13:57:45;;;;;;;5.30;2.10;;;;;;;;;;4963858;28;20434;-89
2023/07/21 14:00:18;;;;;;;6.70;1.77;;;;;;;;;;4969297;28;20460;-89
2023/07/21 14:02:44;;;;;;;3.67;1.80;;;;;;;;;;4970308;28;20808;-89
2023/07/21 14:05:13;;;;;;;2.33;1.43;;;;;;;;;;4967702;28;20426;-90
2023/07/21 14:07:39;;;;;;;2.37;1.77;;;;;;;;;;4967981;28;20441;-90
2023/07/21 14:10:05;;;;;;;4.10;1.80;;;;;;;;;;4957151;28;20468;-92
2023/07/21 14:12:33;;;;;;;3.60;1.93;;;;;;;;;;4966445;28;20483;-91
2023/07/21 14:14:58;;;;;;;3.67;3.20;;;;;;;;;;4971755;28;20417;-89
2023/07/21 14:17:24;;;;;;;2.30;1.60;;;;;;;;;;4982409;28;20508;-90
2023/07/21 14:19:51;;;;;;;4.00;1.70;;;;;;;;;;4970750;28;20428;-89
2023/07/21 14:22:17;;;;;;;2.60;1.40;;;;;;;;;;4967880;28;20465;-89
2023/07/21 14:24:43;;;;;;;2.70;1.87;;;;;;;;;;4970455;28;20531;-88
2023/07/21 14:27:09;;;;;;;5.70;2.27;;;;;;;;;;4966023;28;20492;-90
2023/07/21 14:29:35;;;;;;;2.00;1.37;;;;;;;;;;4967632;28;20456;-89
2023/07/21 14:32:03;;;;;;;3.67;1.73;;;;;;;;;;4980862;28;20444;-93
2023/07/21 14:34:29;;;;;;;2.83;1.57;;;;;;;;;;4975258;28;20441;-91
2023/07/21 14:36:55;;;;;;;4.90;2.10;;;;;;;;;;4967966;28;20441;-89
2023/07/21 14:39:21;;;;;;;3.80;2.03;;;;;;;;;;4969289;28;20432;-91
2023/07/21 14:41:47;;;;;;;2.70;1.90;;;;;;;;;;4966027;28;20433;-90
2023/07/21 14:44:13;;;;;;;3.23;2.00;;;;;;;;;;4965696;28;20821;-90
2023/07/21 14:46:40;;;;;;;3.30;1.50;;;;;;;;;;4965972;28;20524;-89
2023/07/21 14:49:06;;;;;;;3.47;2.00;;;;;;;;;;4962899;28;20426;-90
2023/07/21 14:51:32;;;;;;;4.60;2.33;;;;;;;;;;4968097;28;20512;-91
2023/07/21 14:53:58;;;;;;;3.63;2.80;;;;;;;;;;4964925;28;20495;-89
2023/07/21 14:56:27;;;;;;;5.80;2.40;;;;;;;;;;4971770;28;20429;-89
2023/07/21 14:58:53;;;;;;;9.80;2.60;;;;;;;;;;4970172;28;20443;-91
2023/07/21 15:01:19;;;;;;;2.90;2.00;;;;;;;;;;4965907;28;20426;-91
2023/07/21 15:03:45;;;;;;;3.37;2.10;;;;;;;;;;4967092;28;20465;-89
2023/07/21 15:06:11;;;;;;;3.00;2.07;;;;;;;;;;4966359;28;20409;-91
2023/07/21 15:08:38;;;;;;;9.20;2.67;;;;;;;;;;4971904;28;20433;-91
2023/07/21 15:11:04;;;;;;;4.23;2.67;;;;;;;;;;4969013;28;20436;-91
2023/07/21 15:13:30;;;;;;;5.90;2.80;;;;;;;;;;4968124;28;20442;-92
2023/07/21 15:15:56;;;;;;;4.20;3.17;;;;;;;;;;4961705;28;20437;-91
2023/07/21 15:18:22;;;;;;;4.70;3.53;;;;;;;;;;4969419;28;20434;-91
2023/07/21 15:20:51;;;;;;;4.93;2.73;;;;;;;;;;4953182;29;20462;-92
2023/07/21 15:23:18;;;;;;;4.67;2.70;;;;;;;;;;4944209;29;20458;-90
2023/07/21 15:25:44;;;;;;;3.93;2.20;;;;;;;;;;4945323;29;20442;-90
2023/07/21 15:28:11;;;;;;;4.47;2.80;;;;;;;;;;4927221;28;20493;-90
2023/07/21 15:30:37;;;;;;;6.60;3.43;;;;;;;;;;4928780;28;20872;-89
2023/07/21 15:33:03;;;;;;;3.50;2.77;;;;;;;;;;4928633;29;20447;-90
2023/07/21 15:35:29;;;;;;;3.70;2.43;;;;;;;;;;4927878;29;20449;-90
2023/07/21 15:37:55;;;;;;;5.27;2.57;;;;;;;;;;4936749;29;20470;-90
2023/07/21 15:40:21;;;;;;;4.43;2.50;;;;;;;;;;4923909;29;20443;-89
2023/07/21 15:42:47;;;;;;;4.37;2.50;;;;;;;;;;4917418;28;20458;-89
2023/07/21 15:45:13;;;;;;;3.10;2.40;;;;;;;;;;4927948;28;20498;-89
2023/07/21 15:47:39;;;;;;;3.80;2.57;;;;;;;;;;4927416;29;20474;-88
2023/07/21 15:50:12;;;;;;;4.43;2.33;;;;;;;;;;4929267;29;20444;-88
2023/07/21 15:52:41;;;;;;;8.53;3.63;;;;;;;;;;4963858;28;20405;-89
2023/07/21 15:55:07;;;;;;;3.27;2.37;;;;;;;;;;4987664;28;20571;-91
2023/07/21 15:57:34;;;;;;;2.63;2.00;;;;;;;;;;4981922;28;20433;-91
2023/07/21 16:00:06;;;;;;;3.90;2.70;;;;;;;;;;4970550;28;20472;-91
2023/07/21 16:02:32;;;;;;;5.03;2.60;;;;;;;;;;4986396;28;20744;-90